createdAt,value
2019-03-27T00:02:18.996Z,67.29
2019-03-27T00:04:50.324Z,67.42
2019-03-27T00:07:22.852Z,67.65
2019-03-27T00:09:54.167Z,67.85
2019-03-27T00:12:25.428Z,68.21
2019-03-27T00:14:56.769Z,68.22
2019-03-27T00:17:28.417Z,68.53
2019-03-27T00:19:59.823Z,68.66
2019-03-27T00:22:31.371Z,68.39
2019-03-27T00:25:02.967Z,68.64
2019-03-27T00:27:34.295Z,68.84
2019-03-27T00:30:09.177Z,69.03
2019-03-27T00:32:40.506Z,69.13
2019-03-27T00:35:12.954Z,69.44
2019-03-27T00:37:44.340Z,69.63
2019-03-27T00:40:15.620Z,69.83
2019-03-27T00:42:46.945Z,69.89
2019-03-27T00:45:26.419Z,69.95
2019-03-27T00:47:51.553Z,69.61
2019-03-27T00:50:22.960Z,69.19
2019-03-27T00:52:54.568Z,69.28
2019-03-27T00:55:25.875Z,69.51
2019-03-27T00:57:57.575Z,69.33
2019-03-27T01:00:41.417Z,69.33
2019-03-27T01:03:12.816Z,69.43
2019-03-27T01:05:44.208Z,69.30
2019-03-27T01:08:15.784Z,69.60
2019-03-27T01:10:47.527Z,69.69
2019-03-27T01:13:18.990Z,69.92
2019-03-27T01:15:50.928Z,70.43
2019-03-27T01:18:22.265Z,70.86
2019-03-27T01:20:53.593Z,71.06
2019-03-27T01:23:24.878Z,71.07
2019-03-27T01:25:56.181Z,71.52
2019-03-27T01:28:27.491Z,71.74
2019-03-27T01:30:58.944Z,72.12
2019-03-27T01:33:30.249Z,72.05
2019-03-27T01:36:01.649Z,72.12
2019-03-27T01:38:33.148Z,72.35
2019-03-27T01:41:04.604Z,72.07
2019-03-27T01:43:35.818Z,72.17
2019-03-27T01:46:07.177Z,72.04
2019-03-27T01:48:38.547Z,72.29
2019-03-27T01:51:09.793Z,72.31
2019-03-27T01:53:41.120Z,72.11
2019-03-27T01:56:15.881Z,71.96
2019-03-27T01:58:50.415Z,71.78
2019-03-27T02:01:21.870Z,71.77
2019-03-27T02:03:53.335Z,71.76
2019-03-27T02:06:24.954Z,71.74
2019-03-27T02:08:56.695Z,72.12
2019-03-27T02:11:28.053Z,72.35
2019-03-27T02:14:00.515Z,72.55
2019-03-27T02:16:31.906Z,72.55
2019-03-27T02:19:03.624Z,72.33
2019-03-27T02:21:34.910Z,72.32
2019-03-27T02:24:06.341Z,72.78
2019-03-27T02:26:37.815Z,72.54
2019-03-27T02:29:09.358Z,72.51
2019-03-27T02:31:40.909Z,72.89
2019-03-27T02:34:13.570Z,72.91
2019-03-27T02:36:45.303Z,73.15
2019-03-27T02:39:16.620Z,73.20
2019-03-27T02:41:48.004Z,73.01
2019-03-27T02:44:19.417Z,73.36
2019-03-27T02:46:50.746Z,73.14
2019-03-27T02:49:22.210Z,73.33
2019-03-27T02:51:53.665Z,73.65
2019-03-27T02:54:25.229Z,73.67
2019-03-27T02:56:56.627Z,73.63
2019-03-27T02:59:27.944Z,73.93
2019-03-27T03:01:59.255Z,74.05
2019-03-27T03:04:31.165Z,74.22
2019-03-27T03:07:02.521Z,74.32
2019-03-27T03:09:33.996Z,74.12
2019-03-27T03:12:05.296Z,74.08
2019-03-27T03:14:36.672Z,73.86
2019-03-27T03:17:08.412Z,73.52
2019-03-27T03:19:39.794Z,73.13
2019-03-27T03:22:11.083Z,73.40
2019-03-27T03:24:42.334Z,73.76
2019-03-27T03:27:14.694Z,73.75
2019-03-27T03:29:47.446Z,73.38
2019-03-27T03:32:19.850Z,72.68
2019-03-27T03:34:51.481Z,72.43
2019-03-27T03:37:22.871Z,72.02
2019-03-27T03:39:54.228Z,71.71
2019-03-27T03:42:25.555Z,71.86
2019-03-27T03:44:57.448Z,72.35
2019-03-27T03:47:28.943Z,72.00
2019-03-27T03:50:01.200Z,71.50
2019-03-27T03:52:32.535Z,71.32
2019-03-27T03:55:04.355Z,70.77
2019-03-27T03:57:37.131Z,70.09
2019-03-27T04:00:08.875Z,69.36
2019-03-27T04:02:40.479Z,68.79
2019-03-27T04:05:16.114Z,68.67
2019-03-27T04:07:47.585Z,68.56
2019-03-27T04:10:19.387Z,68.33
2019-03-27T04:12:50.864Z,68.00
2019-03-27T04:15:22.285Z,67.46
2019-03-27T04:17:53.957Z,66.89
2019-03-27T04:20:26.292Z,67.04
2019-03-27T04:22:57.601Z,66.94
2019-03-27T04:26:06.427Z,66.45
2019-03-27T04:28:05.603Z,66.49
2019-03-27T04:30:37.007Z,65.99
2019-03-27T04:33:12.103Z,64.23
2019-03-27T04:35:43.662Z,63.89
2019-03-27T04:38:14.962Z,62.11
2019-03-27T04:40:46.330Z,61.66
2019-03-27T04:43:17.887Z,60.20
2019-03-27T04:45:49.437Z,60.21
2019-03-27T04:48:20.963Z,59.16
2019-03-27T04:50:53.309Z,58.08
2019-03-27T04:53:24.680Z,58.32
2019-03-27T04:55:56.078Z,57.88
2019-03-27T04:58:29.940Z,57.82
2019-03-27T05:01:02.470Z,56.08
2019-03-27T05:03:34.156Z,56.00
2019-03-27T05:06:05.746Z,55.77
2019-03-27T05:08:37.049Z,54.52
2019-03-27T05:11:08.589Z,54.45
2019-03-27T05:13:40.165Z,52.40
2019-03-27T05:16:11.438Z,52.34
2019-03-27T05:18:43.147Z,53.05
2019-03-27T05:21:14.821Z,54.20
2019-03-27T05:23:46.654Z,53.04
2019-03-27T05:26:18.252Z,53.35
2019-03-27T05:28:49.556Z,52.07
2019-03-27T05:31:20.978Z,52.18
2019-03-27T05:33:52.341Z,49.12
2019-03-27T05:36:23.954Z,48.18
2019-03-27T05:38:55.248Z,47.72
2019-03-27T05:41:26.548Z,47.63
2019-03-27T05:43:58.117Z,47.05
2019-03-27T05:46:29.414Z,47.19
2019-03-27T05:49:00.916Z,45.22
2019-03-27T05:51:32.248Z,45.83
2019-03-27T05:54:03.868Z,45.22
2019-03-27T05:56:36.179Z,44.20
2019-03-27T05:59:07.501Z,42.97
2019-03-27T06:01:38.925Z,43.07
2019-03-27T06:04:10.257Z,39.91
2019-03-27T06:06:41.704Z,39.12
2019-03-27T06:09:13.122Z,40.30
2019-03-27T06:11:44.491Z,35.23
2019-03-27T06:14:15.787Z,35.32
2019-03-27T06:16:48.135Z,34.66
2019-03-27T06:19:19.523Z,37.67
2019-03-27T06:21:50.835Z,36.73
2019-03-27T06:24:22.335Z,35.36
2019-03-27T06:26:54.754Z,36.37
2019-03-27T06:29:26.246Z,37.39
2019-03-27T06:31:57.614Z,33.41
2019-03-27T06:34:29.127Z,36.27
2019-03-27T06:37:00.502Z,36.22
2019-03-27T06:39:31.875Z,35.98
2019-03-27T06:42:03.230Z,32.74
2019-03-27T06:44:35.540Z,30.14
2019-03-27T06:47:06.914Z,28.71
2019-03-27T06:49:38.682Z,28.37
2019-03-27T06:52:10.043Z,28.16
2019-03-27T06:54:41.494Z,28.22
2019-03-27T06:57:12.980Z,27.97
2019-03-27T06:59:44.370Z,28.51
2019-03-27T07:02:17.693Z,29.22
2019-03-27T07:04:49.295Z,29.45
2019-03-27T07:07:21.068Z,26.07
2019-03-27T07:09:52.464Z,29.10
2019-03-27T07:12:23.861Z,26.96
2019-03-27T07:14:55.350Z,26.87
2019-03-27T07:17:26.799Z,24.53
2019-03-27T07:19:58.143Z,26.93
2019-03-27T07:22:29.964Z,28.42
2019-03-27T07:25:06.884Z,27.19
2019-03-27T07:27:38.132Z,26.80
2019-03-27T07:30:10.729Z,28.83
2019-03-27T07:32:42.496Z,26.93
2019-03-27T07:35:13.909Z,25.37
2019-03-27T07:37:50.777Z,26.04
2019-03-27T07:40:25.486Z,26.75
2019-03-27T07:43:01.354Z,27.63
2019-03-27T07:48:53.189Z,26.54
2019-03-27T07:51:15.887Z,25.36
2019-03-27T07:53:47.834Z,26.31
2019-03-27T07:56:19.367Z,27.33
2019-03-27T07:58:51.761Z,28.73
2019-03-27T08:01:28.340Z,29.00
2019-03-27T08:04:01.097Z,29.26
2019-03-27T08:06:37.471Z,30.04
2019-03-27T08:09:08.988Z,30.57
2019-03-27T08:11:42.443Z,30.17
2019-03-27T08:14:13.869Z,30.13
2019-03-27T08:16:45.294Z,29.77
2019-03-27T08:19:16.726Z,29.32
2019-03-27T08:21:48.307Z,30.12
2019-03-27T08:24:19.749Z,30.13
2019-03-27T08:26:51.367Z,29.99
2019-03-27T08:29:22.901Z,29.84
2019-03-27T08:31:55.319Z,30.57
2019-03-27T08:34:27.158Z,31.28
2019-03-27T08:36:58.533Z,32.47
2019-03-27T08:39:31.249Z,31.95
2019-03-27T08:42:03.487Z,33.12
2019-03-27T08:44:35.297Z,33.38
2019-03-27T08:47:06.923Z,33.00
2019-03-27T08:49:38.340Z,32.46
2019-03-27T08:52:11.695Z,31.65
2019-03-27T08:54:42.925Z,32.62
2019-03-27T08:57:15.520Z,32.72
2019-03-27T08:59:46.773Z,32.99
2019-03-27T09:02:18.019Z,32.74
2019-03-27T09:04:51.365Z,32.24
2019-03-27T09:07:23.797Z,32.39
2019-03-27T09:09:55.499Z,31.93
2019-03-27T09:12:26.865Z,32.45
2019-03-27T09:14:58.188Z,31.87
2019-03-27T09:17:29.450Z,35.19
2019-03-27T09:20:01.920Z,34.92
2019-03-27T09:22:33.136Z,35.08
2019-03-27T09:25:05.872Z,36.37
2019-03-27T09:27:37.383Z,37.56
2019-03-27T09:30:13.232Z,37.39
2019-03-27T09:32:44.948Z,37.71
2019-03-27T09:35:18.279Z,37.52
2019-03-27T09:37:50.712Z,37.98
2019-03-27T09:40:21.969Z,37.16
2019-03-27T09:42:54.002Z,37.49
2019-03-27T09:45:25.328Z,37.01
2019-03-27T09:47:56.884Z,37.45
2019-03-27T09:50:29.281Z,37.17
2019-03-27T09:53:00.730Z,37.47
2019-03-27T09:55:32.393Z,36.27
2019-03-27T09:58:03.743Z,35.13
2019-03-27T10:00:55.442Z,34.49
2019-03-27T10:03:26.951Z,34.43
2019-03-27T10:05:58.795Z,32.06
2019-03-27T10:08:30.368Z,31.83
2019-03-27T10:11:02.072Z,31.69
2019-03-27T10:13:34.490Z,32.01
2019-03-27T10:16:05.855Z,31.34
2019-03-27T10:18:37.163Z,31.33
2019-03-27T10:21:08.647Z,31.68
2019-03-27T10:23:43.567Z,32.72
2019-03-27T10:26:14.320Z,33.14
2019-03-27T10:28:45.536Z,32.66
2019-03-27T10:31:17.157Z,33.05
2019-03-27T10:33:48.592Z,33.11
2019-03-27T10:36:20.133Z,33.79
2019-03-27T10:38:51.568Z,33.86
2019-03-27T10:41:22.808Z,33.35
2019-03-27T10:43:54.160Z,34.79
2019-03-27T10:46:25.388Z,35.57
2019-03-27T10:48:59.872Z,36.33
2019-03-27T10:51:31.303Z,36.66
2019-03-27T10:54:02.654Z,36.09
2019-03-27T10:56:35.138Z,35.23
2019-03-27T10:59:06.558Z,36.54
2019-03-27T11:01:41.757Z,35.03
2019-03-27T11:04:13.296Z,34.54
2019-03-27T11:06:48.194Z,35.07
2019-03-27T11:09:19.848Z,35.62
2019-03-27T11:11:51.708Z,35.57
2019-03-27T11:14:36.886Z,35.77
2019-03-27T11:16:56.439Z,35.76
2019-03-27T11:19:33.579Z,35.79
2019-03-27T11:22:05.041Z,35.17
2019-03-27T11:24:36.686Z,34.74
2019-03-27T11:27:08.208Z,34.63
2019-03-27T11:29:39.620Z,34.73
2019-03-27T11:32:11.086Z,34.69
2019-03-27T11:34:42.591Z,35.04
2019-03-27T11:37:17.758Z,36.12
2019-03-27T11:39:48.767Z,36.85
2019-03-27T11:42:19.831Z,35.23
2019-03-27T11:44:51.400Z,34.80
2019-03-27T11:47:24.732Z,35.48
2019-03-27T11:50:00.480Z,35.39
2019-03-27T11:52:38.704Z,36.13
2019-03-27T11:55:10.617Z,36.07
2019-03-27T11:57:42.121Z,36.00
2019-03-27T12:00:13.719Z,36.20
2019-03-27T12:02:47.078Z,35.89
2019-03-27T12:05:20.250Z,36.29
2019-03-27T12:07:51.822Z,36.73
2019-03-27T12:10:23.209Z,37.51
2019-03-27T12:12:54.524Z,37.95
2019-03-27T12:15:29.177Z,38.71
2019-03-27T12:18:00.484Z,38.58
2019-03-27T12:20:34.858Z,39.44
2019-03-27T12:23:06.191Z,40.11
2019-03-27T12:25:37.606Z,39.64
2019-03-27T12:28:17.707Z,39.94
2019-03-27T12:30:50.098Z,43.11
2019-03-27T12:33:22.356Z,44.95
2019-03-27T12:35:54.366Z,46.67
2019-03-27T12:38:27.139Z,48.20
2019-03-27T12:41:00.710Z,49.49
2019-03-27T12:43:32.262Z,57.02
2019-03-27T12:46:09.540Z,57.02
2019-03-27T12:48:41.750Z,63.69
2019-03-27T12:51:13.557Z,63.69
2019-03-27T12:53:45.137Z,62.31
2019-03-27T12:56:16.766Z,62.31
2019-03-27T12:58:53.501Z,63.53
2019-03-27T13:01:24.883Z,65.56
2019-03-27T13:03:59.702Z,65.42
2019-03-27T13:06:31.119Z,65.33
2019-03-27T13:09:02.807Z,66.18
2019-03-27T13:11:36.852Z,67.57
2019-03-27T13:14:09.965Z,68.61
2019-03-27T13:16:41.550Z,69.68
2019-03-27T13:19:14.691Z,69.51
2019-03-27T13:21:47.397Z,69.75
2019-03-27T13:24:19.000Z,70.78
2019-03-27T13:26:50.408Z,72.39
2019-03-27T13:29:21.889Z,73.80
2019-03-27T13:31:54.409Z,73.53
2019-03-27T13:34:26.280Z,72.24
2019-03-27T13:36:57.740Z,71.50
2019-03-27T13:39:29.117Z,72.33
2019-03-27T13:42:03.522Z,72.36
2019-03-27T13:44:37.702Z,73.38
2019-03-27T13:47:08.723Z,73.57
2019-03-27T13:49:40.715Z,74.05
2019-03-27T13:52:12.165Z,72.58
2019-03-27T13:54:45.685Z,73.30
2019-03-27T13:57:17.259Z,74.32
2019-03-27T13:59:48.869Z,73.49
2019-03-27T14:02:21.268Z,74.57
2019-03-27T14:04:52.717Z,74.76
2019-03-27T14:07:24.068Z,74.87
2019-03-27T14:09:57.212Z,73.20
2019-03-27T14:12:29.116Z,74.56
2019-03-27T14:15:00.801Z,74.96
2019-03-27T14:17:32.268Z,75.62
2019-03-27T14:20:04.289Z,73.38
2019-03-27T14:22:35.886Z,74.79
2019-03-27T14:25:08.943Z,74.49
2019-03-27T14:27:45.216Z,75.23
2019-03-27T14:30:18.598Z,76.30
2019-03-27T14:32:51.008Z,76.26
2019-03-27T14:35:22.562Z,76.25
2019-03-27T14:37:54.126Z,76.70
2019-03-27T14:40:27.204Z,76.41
2019-03-27T14:42:58.703Z,76.83
2019-03-27T14:45:31.198Z,76.92
2019-03-27T14:48:05.440Z,77.33
2019-03-27T14:50:37.062Z,76.79
2019-03-27T14:53:09.972Z,78.63
2019-03-27T14:55:42.658Z,77.98
2019-03-27T14:58:15.375Z,78.79
2019-03-27T15:00:46.691Z,78.89
2019-03-27T15:03:20.380Z,78.54
2019-03-27T15:05:52.597Z,79.81
2019-03-27T15:08:27.789Z,81.06
2019-03-27T15:10:59.221Z,81.79
2019-03-27T15:13:32.081Z,80.62
2019-03-27T15:16:04.915Z,81.53
2019-03-27T15:18:37.348Z,80.36
2019-03-27T15:21:09.818Z,80.58
2019-03-27T15:23:41.687Z,81.54
2019-03-27T15:26:20.740Z,82.52
2019-03-27T15:28:52.334Z,80.80
2019-03-27T15:31:25.688Z,81.69
2019-03-27T15:33:57.111Z,81.72
2019-03-27T15:36:28.647Z,83.13
2019-03-27T15:39:02.098Z,81.03
2019-03-27T15:41:34.597Z,81.75
2019-03-27T15:44:08.444Z,81.95
2019-03-27T15:46:40.061Z,83.10
2019-03-27T15:49:11.497Z,82.72
2019-03-27T15:51:47.368Z,82.87
2019-03-27T15:54:18.959Z,82.44
2019-03-27T15:56:50.779Z,82.92
2019-03-27T15:59:22.431Z,83.35
2019-03-27T16:01:54.121Z,83.66
2019-03-27T16:04:25.609Z,84.03
2019-03-27T16:06:57.080Z,84.32
2019-03-27T16:09:40.457Z,83.86
2019-03-27T16:12:08.836Z,85.13
2019-03-27T16:14:40.467Z,84.69
2019-03-27T16:17:13.655Z,84.72
2019-03-27T16:19:45.593Z,85.40
2019-03-27T16:22:16.942Z,85.31
2019-03-27T16:27:38.989Z,84.41
2019-03-27T16:30:10.556Z,85.80
2019-03-27T16:32:43.037Z,84.86
2019-03-27T16:35:14.435Z,84.71
2019-03-27T16:37:45.839Z,84.92
2019-03-27T16:40:20.419Z,84.91
2019-03-27T16:42:51.855Z,84.95
2019-03-27T16:45:23.212Z,85.51
2019-03-27T16:47:56.194Z,85.52
2019-03-27T16:50:27.653Z,84.50
2019-03-27T16:53:03.695Z,85.14
2019-03-27T16:55:32.236Z,85.13
2019-03-27T16:58:04.025Z,84.64
2019-03-27T17:00:37.914Z,84.42
2019-03-27T17:03:09.389Z,84.72
2019-03-27T17:05:53.349Z,84.62
2019-03-27T17:08:18.334Z,85.47
2019-03-27T17:10:52.964Z,84.91
2019-03-27T17:13:28.812Z,85.47
2019-03-27T17:16:19.378Z,85.92
2019-03-27T17:18:57.513Z,85.04
2019-03-27T17:21:29.177Z,85.66
2019-03-27T17:24:00.978Z,85.73
2019-03-27T17:26:32.748Z,85.68
2019-03-27T17:29:04.158Z,86.08
2019-03-27T17:31:38.576Z,86.22
2019-03-27T17:34:17.120Z,86.95
2019-03-27T17:36:55.369Z,86.75
2019-03-27T17:39:30.599Z,87.03
2019-03-27T17:42:08.934Z,87.42
2019-03-27T17:44:41.858Z,86.61
2019-03-27T17:47:21.111Z,86.91
2019-03-27T17:49:52.812Z,86.96
2019-03-27T17:52:26.607Z,87.00
2019-03-27T17:54:59.720Z,87.10
2019-03-27T17:57:31.050Z,87.39
2019-03-27T18:00:02.445Z,86.91
2019-03-27T18:02:36.563Z,86.90
2019-03-27T18:05:10.144Z,88.10
2019-03-27T18:07:42.111Z,87.63
2019-03-27T18:10:13.514Z,86.94
2019-03-27T18:12:45.251Z,87.45
2019-03-27T18:15:17.815Z,87.79
2019-03-27T18:17:49.470Z,87.20
2019-03-27T18:20:21.978Z,87.89
2019-03-27T18:22:53.742Z,87.74
2019-03-27T18:25:25.373Z,88.63
2019-03-27T18:27:58.571Z,87.39
2019-03-27T18:30:31.871Z,87.49
2019-03-27T18:33:06.276Z,87.21
2019-03-27T18:35:37.719Z,89.20
2019-03-27T18:38:09.449Z,88.64
2019-03-27T18:40:41.132Z,88.15
2019-03-27T18:43:14.050Z,88.43
2019-03-27T18:45:45.679Z,87.79
2019-03-27T18:48:17.118Z,88.07
2019-03-27T18:50:48.739Z,87.66
2019-03-27T18:53:20.282Z,88.14
2019-03-27T18:55:51.845Z,88.14
2019-03-27T18:58:23.215Z,87.20
2019-03-27T19:00:55.907Z,86.81
2019-03-27T19:03:27.639Z,88.13
2019-03-27T19:05:59.255Z,88.23
2019-03-27T19:08:31.012Z,87.39
2019-03-27T19:11:02.766Z,88.10
2019-03-27T19:13:34.152Z,87.54
2019-03-27T19:16:06.002Z,88.12
2019-03-27T19:18:38.023Z,88.18
2019-03-27T19:21:13.928Z,87.88
2019-03-27T19:23:46.986Z,87.25
2019-03-27T19:26:19.552Z,87.98
2019-03-27T19:28:53.865Z,88.24
2019-03-27T19:31:26.612Z,87.04
2019-03-27T19:33:59.490Z,86.92
2019-03-27T19:36:30.892Z,88.08
2019-03-27T19:39:02.818Z,88.96
2019-03-27T19:41:36.084Z,87.57
2019-03-27T19:44:07.668Z,87.45
2019-03-27T19:46:40.154Z,87.24
2019-03-27T19:49:11.597Z,87.49
2019-03-27T19:51:43.229Z,87.57
2019-03-27T19:54:26.414Z,87.09
2019-03-27T19:56:48.085Z,87.20
2019-03-27T19:59:19.733Z,87.09
2019-03-27T20:01:51.790Z,87.66
2019-03-27T20:04:23.392Z,87.44
2019-03-27T20:06:54.694Z,87.42
2019-03-27T20:09:27.101Z,87.17
2019-03-27T20:11:58.922Z,87.05
2019-03-27T20:14:31.622Z,86.84
2019-03-27T20:17:02.990Z,87.03
2019-03-27T20:19:35.451Z,86.83
2019-03-27T20:22:06.845Z,87.08
2019-03-27T20:24:41.359Z,86.67
2019-03-27T20:27:13.030Z,86.77
2019-03-27T20:29:46.541Z,87.23
2019-03-27T20:32:17.974Z,86.62
2019-03-27T20:34:49.735Z,86.85
2019-03-27T20:37:21.180Z,87.19
2019-03-27T20:39:52.772Z,86.63
2019-03-27T20:42:25.133Z,86.84
2019-03-27T20:44:56.890Z,87.20
2019-03-27T20:47:28.598Z,86.64
2019-03-27T20:49:59.946Z,87.67
2019-03-27T20:52:32.267Z,87.10
2019-03-27T20:55:05.308Z,86.61
2019-03-27T20:57:36.684Z,86.68
2019-03-27T21:00:07.988Z,87.24
2019-03-27T21:02:39.508Z,87.47
2019-03-27T21:05:10.735Z,87.28
2019-03-27T21:07:41.983Z,87.21
2019-03-27T21:10:13.328Z,87.05
2019-03-27T21:12:44.677Z,87.13
2019-03-27T21:15:15.905Z,87.26
2019-03-27T21:17:47.233Z,87.61
2019-03-27T21:20:18.553Z,87.29
2019-03-27T21:22:49.822Z,87.07
2019-03-27T21:25:21.103Z,87.46
2019-03-27T21:27:52.479Z,87.31
2019-03-27T21:30:23.805Z,87.40
2019-03-27T21:32:55.164Z,87.40
2019-03-27T21:35:26.530Z,87.02
2019-03-27T21:37:57.874Z,87.20
2019-03-27T21:40:29.339Z,87.30
2019-03-27T21:43:00.728Z,87.09
2019-03-27T21:45:33.183Z,87.23
2019-03-27T21:48:04.657Z,87.20
2019-03-27T21:50:39.731Z,87.09
2019-03-27T21:53:11.261Z,87.05
2019-03-27T21:55:43.333Z,87.07
2019-03-27T21:58:20.681Z,87.26
2019-03-27T22:00:55.468Z,87.63
2019-03-27T22:03:27.773Z,87.33
2019-03-27T22:05:59.145Z,87.18
2019-03-27T22:08:30.485Z,87.42
2019-03-27T22:11:04.176Z,87.73
2019-03-27T22:13:35.832Z,87.73
2019-03-27T22:16:07.216Z,87.96
2019-03-27T22:18:38.678Z,87.57
2019-03-27T22:21:09.919Z,87.37
2019-03-27T22:23:42.157Z,87.56
2019-03-27T22:26:14.467Z,87.81
2019-03-27T22:28:45.813Z,87.78
2019-03-27T22:31:17.253Z,87.69
2019-03-27T22:33:51.681Z,87.62
2019-03-27T22:36:22.838Z,87.37
2019-03-27T22:38:54.131Z,87.38
2019-03-27T22:41:25.992Z,87.54
2019-03-27T22:43:58.305Z,87.68
2019-03-27T22:46:31.037Z,87.27
2019-03-27T22:49:02.322Z,87.95
2019-03-27T22:51:33.632Z,87.24
2019-03-27T22:54:05.017Z,87.12
2019-03-27T22:56:36.301Z,87.26
2019-03-27T22:59:07.585Z,88.28
2019-03-27T23:01:44.658Z,87.66
2019-03-27T23:04:15.908Z,88.22
2019-03-27T23:06:47.204Z,88.19
2019-03-27T23:09:18.499Z,88.23
2019-03-27T23:11:49.797Z,88.16
2019-03-27T23:14:21.120Z,88.10
2019-03-27T23:16:52.438Z,87.70
2019-03-27T23:19:23.776Z,87.64
2019-03-27T23:21:56.148Z,87.34
2019-03-27T23:24:27.462Z,87.87
2019-03-27T23:26:58.766Z,88.70
2019-03-27T23:29:30.060Z,88.01
2019-03-27T23:32:01.435Z,87.03
2019-03-27T23:34:32.753Z,86.61
2019-03-27T23:37:04.058Z,87.09
2019-03-27T23:39:35.369Z,86.58
2019-03-27T23:42:06.698Z,87.03
2019-03-27T23:44:38.019Z,86.13
2019-03-27T23:47:09.317Z,85.90
2019-03-27T23:49:40.757Z,86.16
2019-03-27T23:52:12.316Z,86.12
2019-03-27T23:54:43.536Z,85.97
2019-03-27T23:57:14.838Z,85.96
2019-03-27T23:59:46.159Z,85.81
